Time;durP1;ratioP1;P1;durP2;ratioP2;P2;SDS_P1;SDS_P2;PMS_P1;PMS_P2;Temp;Humidity;BMP_temperature;BMP_pressure;BME280_temperature;BME280_humidity;BME280_pressure;Samples;Min_cycle;Max_cycle;Signal;HPM_P1;HPM_P2
2024/01/28 00:00:09;;;;;;;8.77;4.13;;;2.80;99.90;;;;;;5013867;28;20231;-57
2024/01/28 00:02:35;;;;;;;11.37;5.00;;;2.90;99.90;;;;;;5021909;28;20582;-57
2024/01/28 00:05:03;;;;;;;11.50;4.67;;;2.90;99.90;;;;;;5024769;28;20230;-59
2024/01/28 00:07:31;;;;;;;8.37;4.53;;;2.90;99.90;;;;;;5025083;28;20277;-58
2024/01/28 00:09:57;;;;;;;8.37;4.90;;;3.00;99.90;;;;;;5022739;28;20226;-57
2024/01/28 00:12:24;;;;;;;9.07;5.37;;;3.00;99.90;;;;;;5022131;28;20203;-57
2024/01/28 00:14:51;;;;;;;10.27;5.23;;;3.00;99.90;;;;;;5023076;28;20738;-56
2024/01/28 00:17:17;;;;;;;7.70;4.40;;;2.90;99.90;;;;;;5024811;28;20194;-58
2024/01/28 00:19:44;;;;;;;9.57;4.23;;;2.90;99.90;;;;;;5024494;28;20695;-57
2024/01/28 00:22:11;;;;;;;7.10;3.80;;;2.90;99.90;;;;;;5021465;28;20281;-57
2024/01/28 00:24:38;;;;;;;8.60;4.20;;;2.90;99.90;;;;;;5021469;28;20241;-57
2024/01/28 00:27:05;;;;;;;6.77;4.00;;;2.80;99.90;;;;;;5024407;28;20210;-58
2024/01/28 00:29:32;;;;;;;8.77;3.90;;;2.80;99.90;;;;;;5024732;28;20220;-57
2024/01/28 00:31:59;;;;;;;7.40;3.70;;;2.80;99.90;;;;;;5022153;28;20676;-56
2024/01/28 00:34:26;;;;;;;7.10;4.10;;;2.80;99.90;;;;;;5021700;28;20266;-56
2024/01/28 00:36:53;;;;;;;10.53;4.73;;;2.70;99.90;;;;;;5022287;28;20294;-56
2024/01/28 00:39:20;;;;;;;6.73;3.70;;;2.70;99.90;;;;;;5025066;28;20272;-58
2024/01/28 00:41:48;;;;;;;8.37;3.43;;;2.70;99.90;;;;;;5023739;28;20581;-57
2024/01/28 00:44:15;;;;;;;5.97;2.93;;;2.70;99.90;;;;;;5021314;28;20207;-57
2024/01/28 00:46:42;;;;;;;5.93;3.43;;;2.70;99.90;;;;;;5020908;28;20458;-57
2024/01/28 00:49:08;;;;;;;6.80;3.10;;;2.60;99.90;;;;;;5013011;28;20219;-57
2024/01/28 00:51:35;;;;;;;6.67;3.03;;;2.60;99.90;;;;;;5020726;28;20227;-57
2024/01/28 00:54:01;;;;;;;7.37;3.33;;;2.60;99.90;;;;;;5023646;28;20207;-57
2024/01/28 00:56:28;;;;;;;7.67;3.83;;;2.50;99.90;;;;;;5024253;28;20198;-58
2024/01/28 00:58:56;;;;;;;7.50;2.97;;;2.50;99.90;;;;;;5022872;28;20202;-56
2024/01/28 01:01:23;;;;;;;8.70;3.47;;;2.50;99.90;;;;;;5020789;28;20227;-57
2024/01/28 01:03:49;;;;;;;5.23;3.03;;;2.50;99.90;;;;;;5021656;28;20207;-57
2024/01/28 01:06:16;;;;;;;6.90;3.33;;;2.40;99.90;;;;;;5023981;28;20202;-57
2024/01/28 01:08:43;;;;;;;7.93;4.10;;;2.50;99.90;;;;;;5024064;28;20589;-57
2024/01/28 01:11:09;;;;;;;5.67;3.80;;;2.40;99.90;;;;;;5012781;28;20234;-55
2024/01/28 01:13:36;;;;;;;6.53;4.00;;;2.30;99.90;;;;;;5020764;28;20692;-56
2024/01/28 01:16:05;;;;;;;6.60;3.73;;;2.20;99.90;;;;;;5023169;28;20211;-57
2024/01/28 01:18:31;;;;;;;6.30;3.87;;;2.20;99.90;;;;;;5024036;28;20210;-57
2024/01/28 01:20:58;;;;;;;6.20;4.10;;;2.20;99.90;;;;;;5021457;28;20230;-57
2024/01/28 01:23:25;;;;;;;7.27;4.20;;;2.20;99.90;;;;;;5020462;28;20203;-58
2024/01/28 01:25:51;;;;;;;10.07;4.93;;;2.10;99.90;;;;;;5021767;28;20214;-56
2024/01/28 01:28:18;;;;;;;8.80;5.37;;;2.10;99.90;;;;;;5023710;28;20602;-55
2024/01/28 01:30:45;;;;;;;8.83;4.60;;;2.00;99.90;;;;;;5023466;28;20716;-59
2024/01/28 01:33:13;;;;;;;8.87;4.77;;;1.90;99.90;;;;;;5020292;28;20203;-57
2024/01/28 01:35:39;;;;;;;7.47;4.83;;;1.80;99.90;;;;;;5020893;28;20638;-56
2024/01/28 01:38:06;;;;;;;8.60;5.37;;;1.80;99.90;;;;;;5023156;28;20674;-56
2024/01/28 01:40:33;;;;;;;8.30;6.57;;;1.80;99.90;;;;;;5023724;28;20645;-57
2024/01/28 01:43:00;;;;;;;13.27;5.73;;;1.80;99.90;;;;;;5021400;28;20739;-56
2024/01/28 01:45:26;;;;;;;9.03;5.60;;;1.80;99.90;;;;;;5020260;28;20289;-56
2024/01/28 01:47:53;;;;;;;10.53;5.30;;;1.90;99.90;;;;;;5020928;28;20277;-56
2024/01/28 01:50:21;;;;;;;7.67;4.77;;;1.90;99.90;;;;;;5023537;28;20226;-56
2024/01/28 01:52:48;;;;;;;6.40;4.10;;;2.00;99.90;;;;;;5023046;28;20213;-58
2024/01/28 01:55:15;;;;;;;7.13;3.97;;;2.00;99.90;;;;;;5020224;28;20616;-56
2024/01/28 01:57:43;;;;;;;7.90;4.07;;;2.10;99.90;;;;;;5019954;28;20245;-57
2024/01/28 02:00:14;;;;;;;6.63;3.47;;;2.00;99.90;;;;;;5011868;28;20667;-56
2024/01/28 02:02:43;;;;;;;6.00;3.57;;;2.00;99.90;;;;;;5020535;28;20588;-56
2024/01/28 02:05:10;;;;;;;5.80;3.50;;;2.00;99.90;;;;;;5012527;28;20203;-57
2024/01/28 02:07:38;;;;;;;6.83;3.63;;;2.00;99.90;;;;;;5019843;28;20202;-58
2024/01/28 02:10:06;;;;;;;5.63;3.27;;;2.00;99.90;;;;;;5022746;28;22445;-56
2024/01/28 02:12:33;;;;;;;10.43;3.70;;;1.90;99.90;;;;;;5023657;28;20217;-55
2024/01/28 02:15:04;;;;;;;8.27;3.87;;;1.90;99.90;;;;;;5021574;28;20217;-58
2024/01/28 02:17:31;;;;;;;8.40;3.77;;;1.90;99.90;;;;;;5019866;28;20673;-57
2024/01/28 02:19:57;;;;;;;7.87;3.90;;;1.90;99.90;;;;;;5021977;28;20236;-57
2024/01/28 02:22:24;;;;;;;4.63;3.60;;;1.90;99.90;;;;;;5023435;28;20210;-56
2024/01/28 02:24:52;;;;;;;6.57;4.13;;;1.80;99.90;;;;;;5022717;28;20210;-55
2024/01/28 02:27:19;;;;;;;7.53;4.00;;;1.80;99.90;;;;;;5019730;28;20214;-55
2024/01/28 02:29:46;;;;;;;6.97;3.33;;;1.80;99.90;;;;;;5019947;28;20234;-59
2024/01/28 02:32:15;;;;;;;6.33;3.73;;;1.80;99.90;;;;;;5023453;28;20205;-56
2024/01/28 02:34:42;;;;;;;7.67;3.93;;;1.80;99.90;;;;;;5027186;28;20236;-57
2024/01/28 02:37:10;;;;;;;7.97;3.47;;;1.80;99.90;;;;;;5023395;28;20692;-56
2024/01/28 02:39:37;;;;;;;8.37;3.67;;;1.90;99.90;;;;;;5023631;28;20199;-57
2024/01/28 02:42:05;;;;;;;7.60;3.50;;;1.80;99.90;;;;;;5025813;28;20269;-56
2024/01/28 02:44:32;;;;;;;8.33;3.70;;;1.90;99.90;;;;;;5027000;28;20368;-58
2024/01/28 02:47:01;;;;;;;9.53;3.77;;;1.80;99.90;;;;;;5024961;28;20210;-56
2024/01/28 02:49:27;;;;;;;4.70;3.10;;;1.90;99.90;;;;;;5023373;28;20297;-56
2024/01/28 02:51:54;;;;;;;4.73;3.03;;;1.80;99.90;;;;;;5024422;28;20227;-58
2024/01/28 02:54:22;;;;;;;4.40;3.20;;;1.80;99.90;;;;;;5026757;28;20248;-57
2024/01/28 02:56:49;;;;;;;5.50;2.87;;;1.80;99.90;;;;;;5026131;28;20213;-57
2024/01/28 02:59:17;;;;;;;7.17;2.90;;;1.80;99.90;;;;;;5023655;28;20203;-57
2024/01/28 03:01:46;;;;;;;5.50;3.40;;;1.80;99.90;;;;;;5023095;28;20235;-57
2024/01/28 03:04:13;;;;;;;5.60;3.40;;;1.80;99.90;;;;;;5015481;28;20744;-58
2024/01/28 03:06:40;;;;;;;5.97;3.87;;;1.80;99.90;;;;;;5023008;28;20203;-56
2024/01/28 03:09:07;;;;;;;6.03;3.97;;;1.80;99.90;;;;;;5025238;28;20226;-59
2024/01/28 03:11:34;;;;;;;7.27;5.00;;;1.70;99.90;;;;;;5026094;28;20777;-56
2024/01/28 03:14:00;;;;;;;12.27;6.70;;;1.70;99.90;;;;;;5024157;28;20213;-56
2024/01/28 03:16:28;;;;;;;9.00;6.10;;;1.70;99.90;;;;;;5022353;28;20207;-56
2024/01/28 03:18:55;;;;;;;12.40;6.23;;;1.60;99.90;;;;;;5023562;28;20210;-56
2024/01/28 03:21:21;;;;;;;8.27;5.60;;;1.60;99.90;;;;;;5026033;28;20273;-56
2024/01/28 03:23:48;;;;;;;9.87;5.20;;;1.50;99.90;;;;;;5025528;28;20590;-55
2024/01/28 03:26:15;;;;;;;9.60;5.50;;;1.50;99.90;;;;;;5022217;28;20203;-56
2024/01/28 03:28:42;;;;;;;7.40;4.87;;;1.50;99.90;;;;;;5022392;28;20269;-56
2024/01/28 03:31:09;;;;;;;6.67;4.63;;;1.50;99.90;;;;;;5025071;28;20230;-56
2024/01/28 03:33:37;;;;;;;7.23;4.20;;;1.40;99.90;;;;;;5025852;28;20700;-57
2024/01/28 03:36:04;;;;;;;6.83;4.20;;;1.40;99.90;;;;;;5023218;28;20723;-57
2024/01/28 03:38:30;;;;;;;5.67;3.73;;;1.40;99.90;;;;;;5022180;28;20199;-56
2024/01/28 03:40:57;;;;;;;6.57;4.53;;;1.50;99.90;;;;;;5023250;28;20724;-57
2024/01/28 03:43:24;;;;;;;8.70;4.80;;;1.50;99.90;;;;;;5025607;28;20237;-57
2024/01/28 03:45:50;;;;;;;7.47;4.03;;;1.50;99.90;;;;;;5024627;28;20210;-56
2024/01/28 03:48:17;;;;;;;9.10;4.30;;;1.50;99.90;;;;;;5021824;28;20281;-56
2024/01/28 03:50:45;;;;;;;8.53;3.70;;;1.40;99.90;;;;;;5021891;28;20230;-57
2024/01/28 03:53:12;;;;;;;7.40;3.80;;;1.30;99.90;;;;;;5025211;28;20252;-59
2024/01/28 03:55:38;;;;;;;6.20;3.73;;;1.30;99.90;;;;;;5025395;28;20595;-57
2024/01/28 03:58:05;;;;;;;6.03;3.50;;;1.30;99.90;;;;;;5022592;28;20218;-57
2024/01/28 04:00:33;;;;;;;5.50;3.63;;;1.30;99.90;;;;;;5049459;22;20284;-63
2024/01/28 04:03:01;;;;;;;6.50;3.53;;;1.30;99.90;;;;;;5033268;28;20284;-62
2024/01/28 04:05:27;;;;;;;6.23;3.60;;;1.30;99.90;;;;;;5033284;28;20285;-61
2024/01/28 04:07:55;;;;;;;8.87;4.30;;;1.30;99.90;;;;;;5033143;28;20203;-61
2024/01/28 04:10:22;;;;;;;5.60;3.73;;;1.20;99.90;;;;;;5033183;28;20442;-64
2024/01/28 04:12:49;;;;;;;6.47;3.93;;;1.30;99.90;;;;;;5025005;28;20206;-62
2024/01/28 04:15:15;;;;;;;6.87;3.90;;;1.30;99.90;;;;;;5013783;28;20222;-64
2024/01/28 04:17:42;;;;;;;6.57;3.67;;;1.30;99.90;;;;;;5021220;28;20210;-61
2024/01/28 04:20:09;;;;;;;8.17;4.00;;;1.40;99.90;;;;;;5024126;28;20199;-63
2024/01/28 04:22:36;;;;;;;7.17;3.73;;;1.30;99.90;;;;;;5024894;28;20210;-63
2024/01/28 04:25:05;;;;;;;6.03;3.33;;;1.30;99.90;;;;;;5022918;28;20214;-61
2024/01/28 04:27:31;;;;;;;5.63;3.50;;;1.30;99.90;;;;;;5021214;28;20223;-61
2024/01/28 04:29:58;;;;;;;6.27;3.53;;;1.30;99.90;;;;;;5022336;28;20223;-63
2024/01/28 04:32:25;;;;;;;4.97;3.50;;;1.30;99.90;;;;;;5024514;28;20256;-61
2024/01/28 04:34:51;;;;;;;6.40;3.93;;;1.30;99.90;;;;;;5024533;28;20217;-61
2024/01/28 04:37:18;;;;;;;6.63;4.00;;;1.30;99.90;;;;;;5021095;28;20206;-62
2024/01/28 04:39:45;;;;;;;8.00;3.67;;;1.30;99.90;;;;;;5021215;28;20214;-61
2024/01/28 04:42:13;;;;;;;6.33;3.97;;;1.30;99.90;;;;;;5024240;28;20313;-61
2024/01/28 04:44:39;;;;;;;6.90;5.10;;;1.20;99.90;;;;;;5024563;28;20671;-61
2024/01/28 04:47:06;;;;;;;8.17;5.70;;;1.20;99.90;;;;;;5021889;28;20256;-62
2024/01/28 04:49:33;;;;;;;7.30;4.80;;;1.10;99.90;;;;;;5021017;28;20230;-61
2024/01/28 04:52:00;;;;;;;5.40;4.10;;;1.10;99.90;;;;;;5022267;28;20238;-62
2024/01/28 04:54:27;;;;;;;6.53;4.10;;;1.00;99.90;;;;;;5024342;28;20656;-61
2024/01/28 04:56:53;;;;;;;8.03;4.03;;;1.00;99.90;;;;;;5022555;28;20620;-61
2024/01/28 04:59:21;;;;;;;4.87;3.80;;;0.90;99.90;;;;;;5020680;28;20676;-62
2024/01/28 05:01:48;;;;;;;7.43;4.30;;;0.90;99.90;;;;;;5020399;28;20231;-62
2024/01/28 05:04:15;;;;;;;7.60;3.90;;;0.90;99.90;;;;;;5023995;28;20225;-62
2024/01/28 05:06:41;;;;;;;6.33;3.83;;;0.90;99.90;;;;;;5023929;28;20566;-62
2024/01/28 05:09:10;;;;;;;5.83;3.77;;;0.90;99.90;;;;;;5021339;28;20645;-62
2024/01/28 05:11:37;;;;;;;5.67;3.90;;;1.00;99.90;;;;;;5020410;28;20688;-62
2024/01/28 05:14:04;;;;;;;6.23;3.80;;;0.90;99.90;;;;;;5022049;28;20637;-62
2024/01/28 05:16:32;;;;;;;7.50;4.03;;;0.90;99.90;;;;;;5023867;28;20616;-62
2024/01/28 05:19:01;;;;;;;5.70;3.53;;;1.00;99.90;;;;;;5023037;28;20206;-62
2024/01/28 05:21:28;;;;;;;7.30;3.57;;;1.00;99.90;;;;;;5020195;28;20731;-62
2024/01/28 05:23:55;;;;;;;5.43;3.50;;;1.00;99.90;;;;;;5020766;28;20206;-62
2024/01/28 05:26:22;;;;;;;5.23;3.30;;;1.00;99.90;;;;;;5023409;28;20747;-62
2024/01/28 05:28:49;;;;;;;6.20;3.40;;;1.00;99.90;;;;;;5023513;28;20218;-62
2024/01/28 05:31:15;;;;;;;5.20;3.60;;;1.00;99.90;;;;;;5020390;28;20698;-61
2024/01/28 05:33:45;;;;;;;4.30;3.13;;;1.00;99.90;;;;;;5020382;28;20207;-62
2024/01/28 05:36:13;;;;;;;7.30;3.40;;;1.00;99.90;;;;;;5022612;28;20664;-61
2024/01/28 05:38:40;;;;;;;6.57;3.77;;;1.00;99.90;;;;;;5023524;28;20221;-61
2024/01/28 05:41:07;;;;;;;8.57;4.47;;;1.00;99.90;;;;;;5021231;28;20218;-62
2024/01/28 05:43:34;;;;;;;6.43;3.80;;;1.00;99.90;;;;;;5020041;28;20234;-61
2024/01/28 05:46:01;;;;;;;5.50;3.73;;;0.90;99.90;;;;;;5021236;28;20207;-62
2024/01/28 05:48:28;;;;;;;9.87;4.10;;;0.90;99.90;;;;;;5023529;28;20210;-62
2024/01/28 05:50:56;;;;;;;6.27;3.97;;;0.90;99.90;;;;;;5022922;28;20237;-62
2024/01/28 05:53:24;;;;;;;4.90;3.67;;;0.90;99.90;;;;;;5020071;28;20203;-62
2024/01/28 05:55:51;;;;;;;7.23;3.53;;;0.90;99.90;;;;;;5020015;28;20206;-62
2024/01/28 05:58:18;;;;;;;5.67;3.50;;;0.80;99.90;;;;;;5011989;28;20230;-60
2024/01/28 06:00:45;;;;;;;6.07;3.77;;;0.70;99.90;;;;;;5019752;28;20723;-62
2024/01/28 06:03:11;;;;;;;5.67;3.70;;;0.70;99.90;;;;;;5022612;28;20261;-62
2024/01/28 06:05:38;;;;;;;8.17;3.67;;;0.70;99.90;;;;;;5023292;28;20233;-61
2024/01/28 06:08:07;;;;;;;6.73;3.80;;;0.70;99.90;;;;;;5022746;28;20640;-62
2024/01/28 06:10:34;;;;;;;6.87;3.37;;;0.70;99.90;;;;;;5023705;28;20222;-62
2024/01/28 06:13:01;;;;;;;4.77;3.17;;;0.70;99.90;;;;;;5024743;28;20294;-61
2024/01/28 06:15:28;;;;;;;7.03;3.90;;;0.80;99.90;;;;;;5027176;28;20586;-61
2024/01/28 06:17:54;;;;;;;6.97;3.80;;;0.70;99.90;;;;;;5026789;28;20293;-61
2024/01/28 06:20:21;;;;;;;6.70;4.30;;;0.70;99.90;;;;;;5024138;28;20226;-62
2024/01/28 06:22:48;;;;;;;8.17;4.20;;;0.70;99.90;;;;;;5023518;28;20207;-62
2024/01/28 06:25:16;;;;;;;8.10;4.80;;;0.70;99.90;;;;;;5026665;28;20229;-62
2024/01/28 06:27:43;;;;;;;7.23;4.33;;;0.70;99.90;;;;;;5026769;28;20203;-61
2024/01/28 06:30:10;;;;;;;7.17;5.07;;;0.70;99.90;;;;;;5024519;28;20229;-62
2024/01/28 06:32:37;;;;;;;7.60;4.87;;;0.70;99.90;;;;;;5023541;28;20207;-62
2024/01/28 06:35:05;;;;;;;7.07;4.13;;;0.70;99.90;;;;;;5024869;28;20350;-62
2024/01/28 06:37:31;;;;;;;5.17;3.97;;;0.70;99.90;;;;;;5026417;28;20209;-62
2024/01/28 06:39:58;;;;;;;5.50;3.53;;;0.60;99.90;;;;;;5026263;28;20632;-62
2024/01/28 06:42:26;;;;;;;5.57;3.70;;;0.60;99.90;;;;;;5023440;28;20218;-61
2024/01/28 06:44:53;;;;;;;5.70;4.23;;;0.60;99.90;;;;;;5023346;28;20211;-62
2024/01/28 06:47:19;;;;;;;7.27;3.60;;;0.60;99.90;;;;;;5026595;28;20217;-62
2024/01/28 06:49:50;;;;;;;5.27;3.63;;;0.60;99.90;;;;;;5026455;28;20726;-62
2024/01/28 06:52:16;;;;;;;9.27;4.77;;;0.50;99.90;;;;;;5023490;28;20234;-61
2024/01/28 06:54:43;;;;;;;5.43;3.23;;;0.50;99.90;;;;;;5023367;28;20218;-62
2024/01/28 06:57:09;;;;;;;4.50;3.27;;;0.50;99.90;;;;;;5024937;28;20211;-62
2024/01/28 06:59:37;;;;;;;6.13;3.17;;;0.50;99.90;;;;;;5026857;28;20229;-61
2024/01/28 07:02:04;;;;;;;4.37;3.30;;;0.50;99.90;;;;;;5025234;28;20229;-62
2024/01/28 07:04:31;;;;;;;6.43;3.20;;;0.50;99.90;;;;;;5023209;28;20199;-62
2024/01/28 07:06:57;;;;;;;4.47;2.90;;;0.50;99.90;;;;;;5023158;28;20222;-62
2024/01/28 07:09:24;;;;;;;5.40;2.87;;;0.50;99.90;;;;;;5026571;28;20230;-62
2024/01/28 07:11:51;;;;;;;5.00;3.10;;;0.40;99.90;;;;;;5026102;28;20650;-61
2024/01/28 07:14:18;;;;;;;4.10;3.00;;;0.40;99.90;;;;;;5022835;28;20669;-61
2024/01/28 07:16:46;;;;;;;6.37;3.30;;;0.40;99.90;;;;;;5022472;28;20280;-62
2024/01/28 07:19:12;;;;;;;6.60;3.57;;;0.40;99.90;;;;;;5024052;28;20214;-61
2024/01/28 07:21:39;;;;;;;5.13;3.57;;;0.40;99.90;;;;;;5025769;28;20602;-62
2024/01/28 07:24:07;;;;;;;5.03;3.43;;;0.50;99.90;;;;;;5024460;28;20210;-62
2024/01/28 07:26:33;;;;;;;5.30;3.47;;;0.60;99.90;;;;;;5022616;28;20617;-62
2024/01/28 07:29:00;;;;;;;4.77;3.50;;;0.60;99.90;;;;;;5023173;28;20211;-62
2024/01/28 07:31:27;;;;;;;7.17;3.20;;;0.60;99.90;;;;;;5025591;28;20662;-62
2024/01/28 07:33:55;;;;;;;6.33;3.30;;;0.60;99.90;;;;;;5025640;28;20217;-62
2024/01/28 07:36:21;;;;;;;5.23;3.60;;;0.70;99.90;;;;;;5025588;28;20213;-62
2024/01/28 07:38:48;;;;;;;6.40;3.40;;;0.70;99.90;;;;;;5025619;28;20566;-62
2024/01/28 07:41:15;;;;;;;6.63;4.40;;;0.70;99.90;;;;;;5022744;28;20743;-62
2024/01/28 07:43:42;;;;;;;6.90;3.90;;;0.70;99.90;;;;;;5022171;28;20262;-62
2024/01/28 07:46:09;;;;;;;5.50;3.70;;;0.80;99.90;;;;;;5023566;28;20261;-61
2024/01/28 07:48:35;;;;;;;5.57;3.47;;;0.80;99.90;;;;;;5025723;28;20206;-62
2024/01/28 07:51:04;;;;;;;4.70;3.17;;;0.90;99.90;;;;;;5024386;28;20229;-62
2024/01/28 07:53:30;;;;;;;5.87;3.87;;;0.90;99.90;;;;;;5022096;28;20203;-62
2024/01/28 07:55:57;;;;;;;6.63;4.50;;;1.00;99.90;;;;;;5021985;28;20235;-61
2024/01/28 07:58:24;;;;;;;8.00;3.80;;;1.10;99.90;;;;;;5025142;28;20202;-62
2024/01/28 08:00:51;;;;;;;7.17;3.80;;;1.20;99.90;;;;;;5025062;28;20222;-62
2024/01/28 08:03:17;;;;;;;7.57;3.77;;;1.30;99.90;;;;;;5022268;28;20215;-62
2024/01/28 08:05:44;;;;;;;6.13;4.07;;;1.40;99.90;;;;;;5021875;28;20634;-63
2024/01/28 08:08:12;;;;;;;11.40;6.63;;;1.50;99.90;;;;;;5023419;28;20214;-62
2024/01/28 08:10:39;;;;;;;24.97;12.10;;;1.50;99.90;;;;;;5024964;28;20222;-62
2024/01/28 08:13:06;;;;;;;9.47;5.13;;;1.60;99.90;;;;;;5023474;28;20574;-61
2024/01/28 08:15:32;;;;;;;11.47;5.53;;;1.70;99.90;;;;;;5021743;28;20211;-63
2024/01/28 08:17:59;;;;;;;11.70;6.10;;;1.70;99.90;;;;;;5021559;28;20207;-62
2024/01/28 08:20:26;;;;;;;14.77;7.40;;;1.80;99.90;;;;;;5024871;28;20602;-63
2024/01/28 08:22:53;;;;;;;18.43;7.03;;;1.80;99.90;;;;;;5024864;28;20211;-64
2024/01/28 08:25:21;;;;;;;18.93;9.23;;;1.90;99.90;;;;;;5021647;28;20206;-62
2024/01/28 08:27:47;;;;;;;16.67;8.13;;;1.90;99.90;;;;;;5021233;28;20214;-62
2024/01/28 08:30:15;;;;;;;9.97;6.30;;;2.00;99.90;;;;;;5023561;28;20219;-62
2024/01/28 08:32:41;;;;;;;9.73;6.27;;;2.20;99.90;;;;;;5024742;28;20344;-62
2024/01/28 08:35:09;;;;;;;10.00;5.67;;;2.40;99.90;;;;;;5022960;28;20613;-62
2024/01/28 08:37:35;;;;;;;5.77;4.13;;;2.50;99.90;;;;;;5020928;28;20207;-62
2024/01/28 08:40:04;;;;;;;5.47;3.53;;;2.60;99.90;;;;;;5021623;28;20587;-62
2024/01/28 08:42:32;;;;;;;6.00;3.53;;;2.80;99.90;;;;;;5024297;28;20333;-59
2024/01/28 08:44:58;;;;;;;4.90;3.80;;;2.90;99.90;;;;;;5024048;28;20325;-62
2024/01/28 08:47:25;;;;;;;5.60;3.83;;;3.00;99.90;;;;;;5020628;28;20616;-64
2024/01/28 08:49:52;;;;;;;5.77;3.83;;;3.00;99.90;;;;;;5020913;28;20219;-62
2024/01/28 08:52:20;;;;;;;6.03;4.40;;;3.00;99.90;;;;;;5023440;28;20230;-62
2024/01/28 08:54:47;;;;;;;6.13;4.47;;;3.10;99.90;;;;;;5024354;28;20700;-62
2024/01/28 08:57:14;;;;;;;5.87;4.40;;;3.30;99.90;;;;;;5021582;28;20202;-61
2024/01/28 08:59:42;;;;;;;7.23;4.43;;;3.50;99.90;;;;;;5020810;28;20238;-62
2024/01/28 09:02:09;;;;;;;7.53;4.90;;;3.80;99.90;;;;;;5021643;28;20230;-62
2024/01/28 09:04:35;;;;;;;9.40;5.50;;;4.00;99.90;;;;;;5023997;28;20316;-62
2024/01/28 09:07:02;;;;;;;6.07;4.50;;;4.20;99.90;;;;;;5023337;28;20210;-62
2024/01/28 09:09:29;;;;;;;4.93;3.80;;;4.30;99.90;;;;;;5020566;28;20202;-62
2024/01/28 09:11:56;;;;;;;8.10;4.50;;;4.40;99.90;;;;;;5020588;28;20266;-62
2024/01/28 09:14:23;;;;;;;7.73;4.53;;;4.60;99.90;;;;;;5023953;28;20668;-62
2024/01/28 09:16:50;;;;;;;6.10;4.57;;;4.80;99.90;;;;;;5023750;28;20206;-62
2024/01/28 09:19:17;;;;;;;7.73;4.50;;;5.00;99.90;;;;;;5020994;28;20206;-63
2024/01/28 09:21:44;;;;;;;7.60;5.13;;;5.30;99.90;;;;;;5020450;28;20227;-63
2024/01/28 09:24:10;;;;;;;6.83;4.53;;;5.50;99.90;;;;;;5021817;28;20203;-63
2024/01/28 09:26:37;;;;;;;6.07;4.50;;;5.70;99.90;;;;;;5023655;28;20206;-62
2024/01/28 09:29:04;;;;;;;5.43;4.77;;;5.80;99.90;;;;;;5023151;28;20206;-63
2024/01/28 09:31:30;;;;;;;7.03;5.17;;;5.80;99.90;;;;;;5020215;28;20231;-61
2024/01/28 09:33:58;;;;;;;6.60;5.00;;;5.90;99.90;;;;;;5020526;28;20210;-61
2024/01/28 09:36:25;;;;;;;5.80;4.60;;;6.10;99.90;;;;;;5012039;28;20207;-63
2024/01/28 09:38:52;;;;;;;6.27;4.00;;;6.30;99.90;;;;;;5020165;28;20214;-61
2024/01/28 09:41:23;;;;;;;5.50;3.67;;;6.40;99.90;;;;;;5022903;28;20226;-61
2024/01/28 09:43:50;;;;;;;5.07;3.80;;;6.50;99.90;;;;;;5023180;28;20297;-62
2024/01/28 09:46:17;;;;;;;8.07;4.33;;;6.70;99.90;;;;;;5020841;28;20206;-61
2024/01/28 09:48:45;;;;;;;4.90;3.90;;;6.90;99.90;;;;;;5020000;28;20707;-62
2024/01/28 09:51:14;;;;;;;5.53;3.63;;;7.00;99.90;;;;;;5021716;28;20277;-62
2024/01/28 09:53:42;;;;;;;13.73;8.80;;;7.30;99.90;;;;;;5023537;28;20213;-62
2024/01/28 09:56:10;;;;;;;4.70;3.80;;;7.50;99.90;;;;;;5021747;28;20205;-61
2024/01/28 09:58:38;;;;;;;5.57;4.27;;;7.70;99.90;;;;;;5020026;28;20206;-62
2024/01/28 10:01:06;;;;;;;6.67;3.70;;;7.70;99.90;;;;;;5049824;22;20269;-61
2024/01/28 10:03:33;;;;;;;5.73;3.50;;;7.90;99.90;;;;;;5031468;28;20299;-60
2024/01/28 10:06:00;;;;;;;4.77;3.30;;;7.90;99.90;;;;;;5031479;28;20210;-56
2024/01/28 10:08:28;;;;;;;6.30;3.37;;;8.00;99.90;;;;;;5031591;28;20207;-58
2024/01/28 10:10:55;;;;;;;3.33;3.03;;;8.20;99.90;;;;;;5031223;28;20226;-59
2024/01/28 10:13:22;;;;;;;4.67;3.20;;;8.50;99.90;;;;;;5020221;28;20207;-60
2024/01/28 10:15:55;;;;;;;4.33;2.90;;;8.70;99.90;;;;;;5020395;28;20211;-60
2024/01/28 10:18:22;;;;;;;4.87;3.30;;;8.90;99.90;;;;;;5022301;28;20209;-62
2024/01/28 10:20:49;;;;;;;3.53;3.00;;;9.00;99.90;;;;;;5021013;28;20719;-62
2024/01/28 10:23:16;;;;;;;4.60;2.90;;;9.10;99.90;;;;;;5021165;28;20214;-59
2024/01/28 10:25:44;;;;;;;4.93;3.20;;;9.30;99.90;;;;;;5020118;28;20246;-60
2024/01/28 10:28:11;;;;;;;3.93;3.17;;;9.40;99.90;;;;;;5020618;28;20219;-58
2024/01/28 10:30:39;;;;;;;4.50;3.40;;;9.50;99.90;;;;;;5022980;28;20273;-61
2024/01/28 10:33:06;;;;;;;3.47;2.80;;;9.60;99.90;;;;;;5021935;28;20690;-61
2024/01/28 10:35:32;;;;;;;3.67;2.50;;;9.70;99.90;;;;;;5019719;28;20203;-61
2024/01/28 10:37:59;;;;;;;3.77;2.90;;;9.80;99.90;;;;;;5019705;28;20587;-61
2024/01/28 10:40:32;;;;;;;2.90;2.33;;;9.80;99.90;;;;;;5011718;28;20258;-59
2024/01/28 10:43:02;;;;;;;2.70;2.17;;;10.00;99.90;;;;;;5023137;28;20211;-60
2024/01/28 10:45:30;;;;;;;3.30;2.10;;;10.00;99.90;;;;;;5015146;28;20207;-61
2024/01/28 10:48:07;;;;;;;2.47;2.07;;;10.10;99.90;;;;;;5022492;28;20210;-60
2024/01/28 10:50:34;;;;;;;3.17;2.13;;;10.20;99.90;;;;;;5015524;28;20256;-60
2024/01/28 10:53:04;;;;;;;2.23;1.93;;;10.40;99.90;;;;;;5021069;28;20294;-60
2024/01/28 10:55:32;;;;;;;3.03;2.27;;;10.50;99.90;;;;;;5014663;28;20258;-60
2024/01/28 10:58:00;;;;;;;3.63;2.17;;;10.70;99.90;;;;;;5022900;28;20203;-60
2024/01/28 11:00:28;;;;;;;2.60;1.80;;;10.70;99.90;;;;;;5015404;28;20199;-61
2024/01/28 11:02:58;;;;;;;2.03;1.77;;;10.90;99.90;;;;;;5023934;28;20207;-64
2024/01/28 11:05:26;;;;;;;2.70;1.93;;;10.90;99.90;;;;;;5026056;28;20244;-63
2024/01/28 11:07:59;;;;;;;3.50;2.10;;;11.00;99.90;;;;;;5025994;28;20581;-63
2024/01/28 11:10:27;;;;;;;2.67;1.83;;;11.10;99.90;;;;;;5022264;28;20235;-61
2024/01/28 11:12:54;;;;;;;4.80;3.77;;;11.30;99.90;;;;;;5022809;28;20207;-62
2024/01/28 11:15:23;;;;;;;5.33;3.27;;;11.40;99.90;;;;;;5025277;28;20202;-61
2024/01/28 11:17:51;;;;;;;2.27;1.87;;;11.60;99.90;;;;;;5025555;28;20248;-61
2024/01/28 11:20:24;;;;;;;2.80;1.97;;;11.70;99.90;;;;;;5023997;28;20288;-59
2024/01/28 11:22:52;;;;;;;2.90;2.37;;;11.80;99.20;;;;;;5022797;28;20581;-59
2024/01/28 11:25:20;;;;;;;3.80;2.80;;;11.90;99.90;;;;;;5024680;28;20203;-60
2024/01/28 11:27:48;;;;;;;4.07;2.73;;;11.90;99.90;;;;;;5025680;28;20292;-60
2024/01/28 11:30:15;;;;;;;3.47;2.50;;;12.00;99.90;;;;;;5023562;28;20213;-60
2024/01/28 11:32:43;;;;;;;4.87;2.83;;;12.20;99.90;;;;;;5022310;28;20226;-59
2024/01/28 11:35:10;;;;;;;5.77;2.47;;;12.30;99.90;;;;;;5023798;28;20657;-60
2024/01/28 11:37:44;;;;;;;2.70;2.40;;;12.40;99.90;;;;;;5025566;28;20838;-60
2024/01/28 11:40:21;;;;;;;2.90;2.30;;;12.50;99.90;;;;;;5024568;28;20234;-61
2024/01/28 11:42:48;;;;;;;4.30;2.33;;;12.60;99.90;;;;;;5022135;28;20302;-62
2024/01/28 11:45:15;;;;;;;6.87;4.57;;;12.50;99.90;;;;;;5021558;28;20227;-62
2024/01/28 11:47:43;;;;;;;6.30;3.60;;;12.50;99.90;;;;;;5021801;28;20302;-61
2024/01/28 11:50:10;;;;;;;3.43;1.80;;;12.60;99.90;;;;;;5023081;28;20628;-60
2024/01/28 11:52:37;;;;;;;2.30;1.50;;;12.70;99.90;;;;;;5025641;28;20280;-62
2024/01/28 11:55:12;;;;;;;2.07;1.30;;;12.70;98.60;;;;;;5025527;28;20206;-61
2024/01/28 11:57:40;;;;;;;1.87;1.40;;;12.90;97.70;;;;;;5022103;28;20253;-61
2024/01/28 12:00:09;;;;;;;2.20;1.70;;;13.10;96.80;;;;;;5025082;28;20211;-61
2024/01/28 12:02:36;;;;;;;5.37;2.40;;;13.30;97.80;;;;;;5027070;28;20719;-62
2024/01/28 12:05:06;;;;;;;2.20;2.00;;;13.40;99.70;;;;;;5027669;28;20260;-61
2024/01/28 12:07:35;;;;;;;3.47;2.23;;;13.50;98.20;;;;;;5017015;28;20513;-61
2024/01/28 12:10:02;;;;;;;3.23;2.00;;;13.50;98.60;;;;;;5009477;28;20227;-59
2024/01/28 12:12:29;;;;;;;3.07;2.00;;;13.40;99.40;;;;;;5018147;28;20236;-63
2024/01/28 12:14:58;;;;;;;2.70;1.97;;;13.50;99.90;;;;;;5017345;28;20219;-61
2024/01/28 12:17:25;;;;;;;3.63;1.80;;;13.60;99.60;;;;;;5023578;28;20289;-61
2024/01/28 12:19:53;;;;;;;3.23;2.17;;;13.70;98.80;;;;;;5012257;28;20214;-59
2024/01/28 12:22:21;;;;;;;2.33;2.00;;;13.80;98.30;;;;;;5012169;28;20571;-60
2024/01/28 12:24:47;;;;;;;2.07;1.60;;;13.90;98.70;;;;;;5019218;28;20231;-63
2024/01/28 12:27:14;;;;;;;2.20;1.77;;;14.00;98.90;;;;;;5021334;28;20210;-58
2024/01/28 12:29:42;;;;;;;2.40;1.83;;;14.10;97.00;;;;;;5021542;28;20684;-59
2024/01/28 12:32:09;;;;;;;1.70;1.53;;;14.10;96.40;;;;;;5022059;28;20222;-59
2024/01/28 12:34:36;;;;;;;5.33;1.87;;;14.30;97.20;;;;;;5025527;28;20210;-59
2024/01/28 12:37:03;;;;;;;3.80;1.73;;;14.30;96.80;;;;;;5024730;28;20238;-59
2024/01/28 12:39:31;;;;;;;2.70;1.70;;;14.40;96.60;;;;;;5013358;28;20677;-58
2024/01/28 12:41:58;;;;;;;2.80;1.20;;;14.50;92.40;;;;;;5022526;28;20716;-58
2024/01/28 12:44:25;;;;;;;1.63;1.20;;;14.50;91.10;;;;;;5024154;28;20688;-58
2024/01/28 12:46:51;;;;;;;1.70;1.20;;;14.50;89.80;;;;;;5024955;28;20217;-58
2024/01/28 12:49:18;;;;;;;1.07;0.90;;;14.60;88.80;;;;;;5023189;28;20213;-60
2024/01/28 12:51:45;;;;;;;2.07;0.80;;;14.60;86.50;;;;;;5020565;28;20723;-58
2024/01/28 12:54:12;;;;;;;1.60;1.30;;;14.70;87.30;;;;;;5021884;28;20629;-59